createdAt,value
2023-05-01T00:01:09.708Z,62.92
2023-05-01T00:06:34.509Z,62.40
2023-05-01T00:11:27.708Z,62.51
2023-05-01T00:16:26.830Z,63.12
2023-05-01T00:21:26.583Z,63.04
2023-05-01T00:26:26.563Z,63.15
2023-05-01T00:31:26.492Z,63.35
2023-05-01T00:36:26.418Z,63.56
2023-05-01T00:41:26.380Z,63.56
2023-05-01T00:46:26.377Z,63.76
2023-05-01T00:51:26.253Z,65.19
2023-05-01T00:56:26.205Z,64.50
2023-05-01T01:01:26.186Z,68.27
2023-05-01T01:06:26.074Z,69.12
2023-05-01T01:11:25.964Z,70.57
2023-05-01T01:16:25.951Z,71.02
2023-05-01T01:21:25.810Z,71.73
2023-05-01T01:26:25.787Z,71.53
2023-05-01T01:31:25.754Z,71.33
2023-05-01T01:36:25.632Z,71.22
2023-05-01T01:41:25.565Z,69.46
2023-05-01T01:46:25.617Z,68.64
2023-05-01T01:51:25.435Z,67.32
2023-05-01T01:56:25.365Z,66.88
2023-05-01T02:01:25.422Z,66.57
2023-05-01T02:06:25.285Z,66.67
2023-05-01T02:11:25.164Z,68.30
2023-05-01T02:16:25.116Z,68.95
2023-05-01T02:21:25.066Z,69.56
2023-05-01T02:26:24.950Z,70.20
2023-05-01T02:31:24.914Z,71.22
2023-05-01T02:36:24.801Z,70.92
2023-05-01T02:41:24.741Z,71.05
2023-05-01T02:46:24.727Z,71.33
2023-05-01T02:51:24.619Z,70.75
2023-05-01T02:56:24.514Z,71.53
2023-05-01T03:01:24.627Z,71.43
2023-05-01T03:06:24.498Z,72.45
2023-05-01T03:11:24.374Z,75.54
2023-05-01T03:16:24.321Z,77.31
2023-05-01T03:21:24.271Z,76.23
2023-05-01T03:26:24.170Z,77.04
2023-05-01T03:31:24.132Z,77.29
2023-05-01T03:36:24.014Z,77.29
2023-05-01T03:41:23.945Z,77.49
2023-05-01T03:46:23.869Z,77.80
2023-05-01T03:51:23.799Z,77.59
2023-05-01T03:56:23.727Z,78.41
2023-05-01T04:01:23.710Z,78.72
2023-05-01T04:06:23.629Z,79.43
2023-05-01T04:11:23.538Z,79.43
2023-05-01T04:16:31.052Z,79.13
2023-05-01T04:21:23.411Z,79.50
2023-05-01T04:26:24.059Z,79.80
2023-05-01T04:31:23.322Z,79.39
2023-05-01T04:36:23.214Z,80.42
2023-05-01T04:41:23.184Z,80.52
2023-05-01T04:46:23.131Z,80.38
2023-05-01T04:51:23.014Z,80.18
2023-05-01T04:56:22.947Z,79.36
2023-05-01T05:01:22.941Z,80.07
2023-05-01T05:06:22.946Z,80.58
2023-05-01T05:11:22.721Z,80.07
2023-05-01T05:16:22.943Z,79.02
2023-05-01T05:21:22.625Z,78.30
2023-05-01T05:26:22.546Z,78.61
2023-05-01T05:31:22.488Z,76.63
2023-05-01T05:36:23.310Z,75.27
2023-05-01T05:41:22.372Z,74.66
2023-05-01T05:46:22.332Z,74.15
2023-05-01T05:51:22.205Z,73.81
2023-05-01T05:56:22.185Z,74.18
2023-05-01T06:01:22.194Z,75.92
2023-05-01T06:06:22.105Z,72.82
2023-05-01T06:11:21.944Z,71.77
2023-05-01T06:16:21.977Z,70.82
2023-05-01T06:21:21.864Z,70.28
2023-05-01T06:26:21.782Z,69.77
2023-05-01T06:31:21.783Z,69.16
2023-05-01T06:36:21.640Z,67.19
2023-05-01T06:41:21.551Z,66.22
2023-05-01T06:46:21.484Z,66.90
2023-05-01T06:51:21.464Z,66.80
2023-05-01T06:56:21.383Z,65.95
2023-05-01T07:01:21.390Z,63.76
2023-05-01T07:06:21.258Z,61.91
2023-05-01T07:11:21.164Z,60.74
2023-05-01T07:16:21.175Z,61.29
2023-05-01T07:21:21.025Z,58.54
2023-05-01T07:26:21.090Z,57.68
2023-05-01T07:31:20.990Z,59.53
2023-05-01T07:36:20.863Z,60.53
2023-05-01T07:41:20.763Z,59.69
2023-05-01T07:46:20.721Z,60.12
2023-05-01T07:51:20.685Z,61.36
2023-05-01T07:56:20.578Z,60.26
2023-05-01T08:01:20.505Z,60.24
2023-05-01T08:06:20.446Z,59.56
2023-05-01T08:11:20.375Z,58.95
2023-05-01T08:16:21.866Z,60.36
2023-05-01T08:21:20.232Z,56.55
2023-05-01T08:26:22.344Z,56.35
2023-05-01T08:31:20.433Z,57.48
2023-05-01T08:36:21.334Z,54.38
2023-05-01T08:41:19.968Z,50.16
2023-05-01T08:46:20.504Z,52.24
2023-05-01T08:51:21.166Z,51.19
2023-05-01T08:56:19.868Z,49.23
2023-05-01T09:01:19.759Z,50.37
2023-05-01T09:06:19.966Z,50.07
2023-05-01T09:11:19.582Z,51.06
2023-05-01T09:16:19.594Z,49.58
2023-05-01T09:21:19.439Z,53.17
2023-05-01T09:26:19.377Z,49.54
2023-05-01T09:31:19.706Z,48.58
2023-05-01T09:36:19.374Z,47.69
2023-05-01T09:41:19.150Z,47.41
2023-05-01T09:46:19.283Z,46.44
2023-05-01T09:51:19.033Z,45.43
2023-05-01T09:56:18.969Z,45.72
2023-05-01T10:01:18.908Z,50.42
2023-05-01T10:06:18.940Z,48.13
2023-05-01T10:11:18.765Z,48.48
2023-05-01T10:16:18.757Z,52.32
2023-05-01T10:21:18.632Z,48.36
2023-05-01T10:26:18.607Z,46.39
2023-05-01T10:31:18.581Z,43.91
2023-05-01T10:36:18.470Z,40.80
2023-05-01T10:41:18.394Z,42.40
2023-05-01T10:46:18.330Z,42.18
2023-05-01T10:51:18.214Z,42.47
2023-05-01T10:56:18.204Z,42.51
2023-05-01T11:01:18.195Z,44.04
2023-05-01T11:06:18.190Z,38.50
2023-05-01T11:11:18.007Z,39.84
2023-05-01T11:16:17.971Z,43.85
2023-05-01T11:21:17.888Z,43.49
2023-05-01T11:26:17.801Z,44.23
2023-05-01T11:31:17.810Z,40.28
2023-05-01T11:36:17.716Z,39.15
2023-05-01T11:41:18.758Z,38.23
2023-05-01T11:46:17.597Z,37.60
2023-05-01T11:51:17.487Z,39.18
2023-05-01T11:56:26.005Z,36.91
2023-05-01T12:01:18.561Z,37.47
2023-05-01T12:06:17.307Z,37.04
2023-05-01T12:11:17.952Z,38.57
2023-05-01T12:16:17.246Z,37.12
2023-05-01T12:21:17.279Z,35.38
2023-05-01T12:26:16.984Z,37.63
2023-05-01T12:31:16.932Z,41.50
2023-05-01T12:36:16.876Z,38.52
2023-05-01T12:41:16.822Z,42.87
2023-05-01T12:46:16.820Z,43.32
2023-05-01T12:51:16.671Z,44.16
2023-05-01T12:56:16.598Z,42.40
2023-05-01T13:01:16.563Z,51.01
2023-05-01T13:06:16.489Z,51.21
2023-05-01T13:11:16.845Z,51.51
2023-05-01T13:16:16.449Z,51.42
2023-05-01T13:21:16.443Z,52.01
2023-05-01T13:26:16.322Z,50.44
2023-05-01T13:31:16.175Z,50.34
2023-05-01T13:36:25.258Z,53.97
2023-05-01T13:41:17.040Z,54.10
2023-05-01T13:46:15.993Z,51.31
2023-05-01T13:51:16.014Z,51.99
2023-05-01T13:56:15.838Z,54.07
2023-05-01T14:01:16.026Z,54.55
2023-05-01T14:06:15.767Z,49.66
2023-05-01T14:11:15.635Z,51.34
2023-05-01T14:16:15.696Z,49.23
2023-05-01T14:21:15.466Z,47.43
2023-05-01T14:26:15.453Z,51.54
2023-05-01T14:31:15.499Z,54.77
2023-05-01T14:36:15.407Z,57.21
2023-05-01T14:41:15.230Z,56.13
2023-05-01T14:46:15.181Z,57.39
2023-05-01T14:51:15.185Z,58.42
2023-05-01T14:56:15.062Z,61.34
2023-05-01T15:01:15.023Z,61.34
2023-05-01T15:06:14.975Z,59.86
2023-05-01T15:11:14.780Z,58.48
2023-05-01T15:16:14.789Z,56.49
2023-05-01T15:21:14.717Z,56.29
2023-05-01T15:26:14.622Z,58.61
2023-05-01T15:31:14.579Z,56.82
2023-05-01T15:36:14.696Z,58.47
2023-05-01T15:41:15.100Z,59.47
2023-05-01T15:46:14.487Z,56.62
2023-05-01T15:51:14.328Z,62.06
2023-05-01T15:56:14.258Z,59.77
2023-05-01T16:01:14.158Z,59.88
2023-05-01T16:06:14.125Z,60.17
2023-05-01T16:11:14.016Z,57.86
2023-05-01T16:16:14.071Z,58.01
2023-05-01T16:21:14.266Z,57.26
2023-05-01T16:26:13.892Z,58.98
2023-05-01T16:31:26.186Z,58.60
2023-05-01T16:36:14.688Z,60.45
2023-05-01T16:41:13.627Z,61.87
2023-05-01T16:46:13.592Z,63.81
2023-05-01T16:51:13.496Z,67.22
2023-05-01T16:56:13.417Z,67.45
2023-05-01T17:01:13.411Z,67.35
2023-05-01T17:06:14.345Z,67.05
2023-05-01T17:11:13.251Z,67.65
2023-05-01T17:16:13.330Z,66.64
2023-05-01T17:21:13.092Z,66.44
2023-05-01T17:26:13.170Z,66.54
2023-05-01T17:31:13.729Z,66.84
2023-05-01T17:36:12.930Z,66.94
2023-05-01T17:41:12.832Z,68.19
2023-05-01T17:46:12.866Z,67.45
2023-05-01T17:51:12.737Z,66.16
2023-05-01T17:56:12.650Z,66.97
2023-05-01T18:01:12.780Z,69.13
2023-05-01T18:06:12.566Z,69.88
2023-05-01T18:11:12.476Z,71.33
2023-05-01T18:16:12.476Z,71.77
2023-05-01T18:21:12.298Z,72.08
2023-05-01T18:26:12.238Z,73.33
2023-05-01T18:31:12.209Z,73.87
2023-05-01T18:36:12.099Z,74.68
2023-05-01T18:41:12.022Z,74.82
2023-05-01T18:46:12.044Z,75.02
2023-05-01T18:51:11.963Z,76.18
2023-05-01T18:56:12.000Z,76.25
2023-05-01T19:01:11.790Z,76.65
2023-05-01T19:06:11.715Z,76.86
2023-05-01T19:11:11.633Z,77.78
2023-05-01T19:16:11.653Z,78.32
2023-05-01T19:21:11.531Z,78.53
2023-05-01T19:26:11.483Z,78.32
2023-05-01T19:31:12.542Z,78.63
2023-05-01T19:36:11.283Z,78.32
2023-05-01T19:41:11.240Z,78.93
2023-05-01T19:46:11.240Z,79.44
2023-05-01T19:51:11.102Z,79.48
2023-05-01T19:56:11.096Z,79.82
2023-05-01T20:01:11.023Z,81.18
2023-05-01T20:06:10.931Z,81.94
2023-05-01T20:11:10.900Z,82.14
2023-05-01T20:16:10.849Z,82.35
2023-05-01T20:21:10.739Z,82.45
2023-05-01T20:26:10.761Z,81.84
2023-05-01T20:31:10.597Z,82.00
2023-05-01T20:36:10.574Z,82.51
2023-05-01T20:41:10.435Z,82.55
2023-05-01T20:46:10.487Z,83.37
2023-05-01T20:51:10.318Z,83.20
2023-05-01T20:56:10.354Z,83.10
2023-05-01T21:01:10.323Z,83.92
2023-05-01T21:06:10.183Z,83.61
2023-05-01T21:11:10.093Z,83.61
2023-05-01T21:16:10.022Z,83.81
2023-05-01T21:21:09.919Z,84.22
2023-05-01T21:26:09.864Z,83.81
2023-05-01T21:31:09.788Z,83.85
2023-05-01T21:36:09.735Z,84.16
2023-05-01T21:41:09.676Z,83.95
2023-05-01T21:46:09.572Z,83.95
2023-05-01T21:51:09.492Z,84.20
2023-05-01T21:56:09.458Z,85.22
2023-05-01T22:01:09.737Z,85.77
2023-05-01T22:06:09.340Z,86.53
2023-05-01T22:11:09.246Z,86.88
2023-05-01T22:16:09.189Z,86.98
2023-05-01T22:21:09.114Z,86.73
2023-05-01T22:26:09.055Z,87.14
2023-05-01T22:31:08.987Z,85.88
2023-05-01T22:36:08.934Z,85.42
2023-05-01T22:41:08.876Z,85.12
2023-05-01T22:46:08.904Z,85.53
2023-05-01T22:51:08.763Z,86.38
2023-05-01T22:56:08.641Z,87.24
2023-05-01T23:01:08.658Z,87.14
2023-05-01T23:06:08.574Z,87.35
2023-05-01T23:11:08.417Z,87.79
2023-05-01T23:16:08.497Z,87.79
2023-05-01T23:21:08.366Z,87.79
2023-05-01T23:26:08.219Z,88.00
2023-05-01T23:31:08.233Z,88.65
2023-05-01T23:36:08.169Z,88.24
2023-05-01T23:41:08.036Z,88.90
2023-05-01T23:46:07.976Z,89.31
2023-05-01T23:51:07.975Z,89.11
2023-05-01T23:56:07.862Z,88.90
